EGPI/ILY METAR and TAF weather

Enter ICAO airport designator
Station Type Date Time Source
EGPI METAR 2018/01/22 19:50 UTC NOAA

EGPI 221950Z AUTO 19011KT 130V200 9999 FEW032/// 08/06 Q1008


Station Type Date Time Source
EGPI Decoded METAR 2018/01/22 19:50 UTC NOAA

Islay, United Kingdom (EGPI) 55-40-55N 006-15-24W
Jan 22, 2018 - 02:50 PM EST / 2018.01.22 1950 UTC
Wind: from the S (190 degrees) at 13 MPH (11 KT) (direction variable):0
Visibility: greater than 7 mile(s):0
Sky conditions: mostly clear
Temperature: 46 F (8 C)
Dew Point: 42 F (6 C)
Relative Humidity: 87%
Pressure (altimeter): 29.77 in. Hg (1008 hPa)
ob: EGPI 221950Z AUTO 19011KT 130V200 9999 FEW032/// 08/06 Q1008
cycle: 20

Station Type Date Time Source
EGPI TAF UTC NOAA

Error!


Example: see airport list